Time;durP1;ratioP1;P1;durP2;ratioP2;P2;SDS_P1;SDS_P2;PMS_P1;PMS_P2;Temp;Humidity;BMP_temperature;BMP_pressure;BME280_temperature;BME280_humidity;BME280_pressure;Samples;Min_cycle;Max_cycle;Signal;HPM_P1;HPM_P2
2023/05/24 00:00:12;;;;;;;9.88;2.25;;;;;;;12.64;56.89;101174.91;4982363;28;20050;-54
2023/05/24 00:02:40;;;;;;;14.95;2.53;;;;;;;12.60;55.69;101182.66;4982166;28;20398;-57
2023/05/24 00:05:09;;;;;;;7.55;2.13;;;;;;;12.55;56.20;101181.78;4984885;28;20049;-57
2023/05/24 00:07:37;;;;;;;12.05;3.00;;;;;;;12.49;56.04;101179.13;4981775;28;20549;-56
2023/05/24 00:10:05;;;;;;;7.05;2.28;;;;;;;12.44;57.16;101180.81;4978841;28;20047;-56
2023/05/24 00:12:32;;;;;;;9.05;2.60;;;;;;;12.40;56.92;101173.88;4978107;28;20046;-55
2023/05/24 00:14:59;;;;;;;7.85;1.77;;;;;;;12.34;57.42;101159.94;4976680;28;20082;-56
2023/05/24 00:17:26;;;;;;;7.57;1.80;;;;;;;12.32;57.54;101168.59;4979750;28;20535;-55
2023/05/24 00:19:53;;;;;;;9.07;2.63;;;;;;;12.29;57.20;101161.66;4977407;28;21842;-55
2023/05/24 00:22:19;;;;;;;9.20;2.55;;;;;;;12.25;57.42;101154.69;4978917;28;20057;-53
2023/05/24 00:24:47;;;;;;;8.05;2.03;;;;;;;12.21;58.11;101147.72;4987142;28;20038;-56
2023/05/24 00:27:14;;;;;;;11.02;2.03;;;;;;;12.15;57.98;101142.47;4988098;28;20076;-57
2023/05/24 00:29:41;;;;;;;7.60;2.58;;;;;;;12.09;58.12;101143.28;4987640;28;20050;-57
2023/05/24 00:32:08;;;;;;;8.57;1.75;;;;;;;12.04;58.32;101140.66;4985502;28;20038;-57
2023/05/24 00:34:34;;;;;;;15.95;2.53;;;;;;;12.00;57.41;101144.06;4984297;28;20506;-54
2023/05/24 00:37:01;;;;;;;10.32;2.42;;;;;;;11.96;58.50;101145.75;4979636;28;20440;-57
2023/05/24 00:39:27;;;;;;;12.25;2.38;;;;;;;11.91;57.58;101143.97;4986978;28;20054;-57
2023/05/24 00:41:54;;;;;;;10.27;4.22;;;;;;;11.88;58.86;101136.16;4986555;28;20049;-55
2023/05/24 00:44:21;;;;;;;9.13;2.20;;;;;;;11.83;58.88;101142.16;4986497;28;20050;-55
2023/05/24 00:46:48;;;;;;;10.60;2.15;;;;;;;11.80;58.64;101130.91;4982014;28;20054;-55
2023/05/24 00:49:15;;;;;;;10.10;2.80;;;;;;;11.77;57.66;101136.94;4986306;28;20070;-54
2023/05/24 00:51:41;;;;;;;11.85;2.58;;;;;;;11.74;58.44;101136.91;4989171;28;20069;-55
2023/05/24 00:54:08;;;;;;;8.32;2.97;;;;;;;11.71;57.84;101142.06;4986921;28;20046;-51
2023/05/24 00:56:35;;;;;;;10.43;3.05;;;;;;;11.69;58.85;101148.97;4984298;28;20054;-52
2023/05/24 00:59:01;;;;;;;7.45;2.78;;;;;;;11.66;58.11;101149.78;4978658;28;20050;-57
2023/05/24 01:01:29;;;;;;;11.15;2.60;;;;;;;11.62;58.70;101147.16;4983136;28;20524;-57
2023/05/24 01:03:58;;;;;;;13.07;3.28;;;;;;;11.60;59.20;101143.66;4982934;28;20050;-54
2023/05/24 01:06:27;;;;;;;10.38;3.63;;;;;;;11.57;58.56;101149.69;4985110;28;20100;-55
2023/05/24 01:11:50;;;;;;;9.32;4.05;;;;;;;11.52;59.62;101147.03;5066700;27;21221;-52
2023/05/24 01:14:28;;;;;;;12.77;4.68;;;;;;;11.48;58.79;101147.88;5014782;27;20038;-53
2023/05/24 01:17:05;;;;;;;9.68;4.82;;;;;;;11.47;59.52;101138.34;5033319;28;20707;-56
2023/05/24 01:22:52;;;;;;;17.48;2.65;;;;;;;11.40;59.32;101139.13;5027448;28;20415;-53
2023/05/24 01:28:10;;;;;;;9.10;2.90;;;;;;;11.41;59.87;101138.25;5052670;27;20397;-53
2023/05/24 01:30:40;;;;;;;9.85;2.85;;;;;;;11.39;59.77;101142.59;5032663;28;20139;-55
2023/05/24 01:33:07;;;;;;;10.02;3.38;;;;;;;11.37;60.01;101136.50;5037928;28;20136;-53
2023/05/24 01:35:39;;;;;;;11.20;2.47;;;;;;;11.38;60.00;101146.03;5034588;28;20073;-56
2023/05/24 01:38:06;;;;;;;10.68;3.28;;;;;;;11.33;59.46;101140.78;5035011;28;20048;-52
2023/05/24 01:40:33;;;;;;;9.23;2.80;;;;;;;11.31;59.78;101148.56;5032524;28;20064;-54
2023/05/24 01:43:07;;;;;;;11.30;2.50;;;;;;;11.30;60.11;101153.72;5030199;28;20072;-54
2023/05/24 01:45:47;;;;;;;12.77;3.00;;;;;;;11.28;59.83;101148.50;5028436;28;20049;-52
2023/05/24 01:51:04;;;;;;;9.32;2.53;;;;;;;11.24;60.49;101136.34;5040430;28;20424;-54
2023/05/24 01:53:34;;;;;;;13.70;2.88;;;;;;;11.23;59.75;101134.63;5071635;28;20065;-56
2023/05/24 01:56:04;;;;;;;11.02;2.65;;;;;;;11.22;59.93;101142.38;5040720;28;20052;-55
2023/05/24 01:58:32;;;;;;;9.73;2.53;;;;;;;11.19;60.43;101130.25;5037598;28;20567;-52
2023/05/24 02:01:00;;;;;;;14.82;2.88;;;;;;;11.18;59.94;101126.78;5034514;28;20061;-53
2023/05/24 02:03:27;;;;;;;11.38;2.22;;;;;;;11.17;59.91;101129.34;5039296;28;20049;-54
2023/05/24 02:05:54;;;;;;;12.07;3.10;;;;;;;11.14;60.95;101129.31;5036682;28;20052;-55
2023/05/24 02:08:21;;;;;;;10.27;2.83;;;;;;;11.13;60.02;101131.06;5037490;28;20048;-52
2023/05/24 02:10:47;;;;;;;8.90;2.80;;;;;;;11.11;60.55;101131.88;5037500;28;20053;-53
2023/05/24 02:13:16;;;;;;;15.77;2.40;;;;;;;11.09;60.44;101133.56;5032833;28;20517;-53
2023/05/24 02:15:43;;;;;;;13.82;2.55;;;;;;;11.07;60.97;101117.16;5040605;28;20060;-55
2023/05/24 02:18:11;;;;;;;12.27;3.35;;;;;;;11.08;61.04;101118.88;5037422;28;20052;-56
2023/05/24 02:20:39;;;;;;;10.15;2.80;;;;;;;11.08;60.51;101129.25;5038772;28;20041;-55
2023/05/24 02:23:06;;;;;;;13.65;2.95;;;;;;;11.11;61.51;101126.69;5032031;28;20559;-56
2023/05/24 02:25:32;;;;;;;9.60;2.75;;;;;;;11.14;61.35;101129.31;5033787;28;20049;-53
2023/05/24 02:27:59;;;;;;;15.32;3.38;;;;;;;11.18;61.13;101136.31;5036878;28;20281;-56
2023/05/24 02:30:26;;;;;;;10.15;2.63;;;;;;;11.23;61.17;101139.81;5038146;28;20045;-54
2023/05/24 02:32:52;;;;;;;12.38;3.40;;;;;;;11.28;61.56;101148.50;5035421;28;20057;-52
2023/05/24 02:35:19;;;;;;;7.88;2.70;;;;;;;11.31;61.40;101138.19;5033396;28;20168;-54
2023/05/24 02:37:46;;;;;;;8.63;2.63;;;;;;;11.35;61.53;101136.47;5035250;28;20052;-55
2023/05/24 02:40:13;;;;;;;11.10;3.45;;;;;;;11.38;60.73;101143.44;5033477;28;20041;-55
2023/05/24 02:42:39;;;;;;;11.30;2.90;;;;;;;11.40;61.68;101141.72;5037156;28;20114;-54
2023/05/24 02:45:07;;;;;;;8.60;3.28;;;;;;;11.42;61.91;101151.25;5030813;28;20046;-54
2023/05/24 02:47:33;;;;;;;10.18;3.20;;;;;;;11.43;61.20;101147.84;5037484;28;20502;-54
2023/05/24 02:50:00;;;;;;;10.52;3.35;;;;;;;11.45;61.60;101150.41;5035727;28;20049;-55
2023/05/24 02:52:26;;;;;;;10.95;2.65;;;;;;;11.47;62.13;101148.72;5037511;28;20408;-55
2023/05/24 02:54:53;;;;;;;15.63;2.90;;;;;;;11.47;61.27;101153.91;5038494;28;20045;-53
2023/05/24 02:57:20;;;;;;;13.55;3.08;;;;;;;11.48;62.17;101153.06;5037890;28;20053;-58
2023/05/24 02:59:47;;;;;;;11.30;2.83;;;;;;;11.49;61.54;101152.22;5040389;28;20120;-51
2023/05/24 03:02:14;;;;;;;19.60;2.95;;;;;;;11.50;61.62;101147.88;5024435;28;20041;-51
2023/05/24 03:04:40;;;;;;;13.82;3.15;;;;;;;11.48;61.96;101142.69;5026113;28;20053;-52
2023/05/24 03:07:07;;;;;;;8.88;3.72;;;;;;;11.46;62.70;101140.94;5021969;28;20133;-56
2023/05/24 03:09:34;;;;;;;12.90;3.95;;;;;;;11.45;61.84;101129.66;5022080;28;20513;-49
2023/05/24 03:12:01;;;;;;;8.07;2.70;;;;;;;11.44;62.17;101135.72;5021022;28;20040;-52
2023/05/24 03:14:27;;;;;;;16.05;3.00;;;;;;;11.43;62.89;101131.38;5008343;28;20073;-54
2023/05/24 03:16:54;;;;;;;10.50;3.53;;;;;;;11.43;62.59;101126.19;5021177;28;20095;-56
2023/05/24 03:19:20;;;;;;;12.32;2.80;;;;;;;11.44;63.00;101130.53;5028823;28;20382;-54
2023/05/24 03:21:47;;;;;;;9.07;3.30;;;;;;;11.45;62.19;101134.84;5027986;28;20198;-54
2023/05/24 03:24:14;;;;;;;12.52;2.85;;;;;;;11.47;61.84;101132.28;5028404;28;20139;-54
2023/05/24 03:26:40;;;;;;;11.75;3.42;;;;;;;11.47;63.07;101133.16;5024925;28;20053;-55
2023/05/24 03:29:07;;;;;;;10.35;3.00;;;;;;;11.49;63.10;101131.47;5024661;28;20060;-55
2023/05/24 03:31:34;;;;;;;15.02;3.50;;;;;;;11.48;62.28;101123.66;5023461;28;20053;-57
2023/05/24 03:34:00;;;;;;;8.15;2.92;;;;;;;11.47;62.54;101130.56;5023262;28;20049;-52
2023/05/24 03:36:27;;;;;;;10.48;2.90;;;;;;;11.47;63.53;101122.78;5020821;28;20060;-50
2023/05/24 03:38:57;;;;;;;11.88;2.92;;;;;;;11.46;62.91;101125.34;5026122;28;20404;-51
2023/05/24 03:41:24;;;;;;;10.98;3.20;;;;;;;11.45;62.38;101127.06;5018951;28;20057;-56
2023/05/24 03:43:51;;;;;;;8.95;2.30;;;;;;;11.43;63.02;101121.00;5021476;28;20057;-52
2023/05/24 03:46:18;;;;;;;8.27;3.00;;;;;;;11.42;63.17;101121.88;5017970;28;20081;-55
2023/05/24 03:48:45;;;;;;;9.55;2.85;;;;;;;11.41;63.38;101122.72;5025009;28;20095;-52
2023/05/24 03:51:11;;;;;;;17.88;3.15;;;;;;;11.40;64.03;101116.66;5023516;28;20041;-54
2023/05/24 03:53:38;;;;;;;10.88;2.65;;;;;;;11.39;63.01;101119.25;5023920;28;20073;-55
2023/05/24 03:56:05;;;;;;;15.77;3.88;;;;;;;11.39;62.91;101116.66;5025199;28;20056;-55
2023/05/24 03:58:32;;;;;;;7.55;2.35;;;;;;;11.37;63.10;101115.75;5008232;28;20054;-55
2023/05/24 04:01:00;;;;;;;9.27;3.22;;;;;;;11.36;63.62;101106.22;5006105;28;20046;-55
2023/05/24 04:03:27;;;;;;;10.15;3.00;;;;;;;11.32;62.85;101108.78;5010902;28;20048;-56
2023/05/24 04:05:54;;;;;;;10.93;3.42;;;;;;;11.31;63.90;101116.53;5022601;28;20484;-55
2023/05/24 04:08:21;;;;;;;10.60;4.20;;;;;;;11.30;63.57;101118.28;5023601;28;20053;-57
2023/05/24 04:10:47;;;;;;;13.55;3.20;;;;;;;11.27;63.84;101118.25;5025369;28;20052;-57
2023/05/24 04:13:14;;;;;;;9.25;3.05;;;;;;;11.25;64.35;101122.53;5017852;28;20049;-55
2023/05/24 04:15:41;;;;;;;7.60;2.67;;;;;;;11.26;64.15;101131.19;5019718;28;20049;-55
2023/05/24 04:18:07;;;;;;;13.07;3.28;;;;;;;11.25;63.73;101132.91;5025892;28;20107;-52
2023/05/24 04:20:34;;;;;;;12.95;3.03;;;;;;;11.24;63.73;101125.97;5023369;28;20661;-52
2023/05/24 04:23:01;;;;;;;12.45;2.92;;;;;;;11.24;64.19;101133.75;5026158;28;20150;-54
2023/05/24 04:25:28;;;;;;;11.05;2.97;;;;;;;11.23;64.21;101125.97;5020251;28;20073;-53
2023/05/24 04:27:55;;;;;;;10.52;2.60;;;;;;;11.22;63.51;101117.34;5020667;28;20103;-54
2023/05/24 04:30:22;;;;;;;11.93;4.75;;;;;;;11.22;64.16;101117.34;5021477;28;20828;-52
2023/05/24 04:32:50;;;;;;;9.50;3.10;;;;;;;11.23;63.75;101113.88;5024762;28;20053;-53
2023/05/24 04:35:17;;;;;;;17.48;3.60;;;;;;;11.23;63.98;101108.69;5020268;28;20107;-56
2023/05/24 04:37:45;;;;;;;14.43;3.40;;;;;;;11.25;64.45;101111.31;5025125;28;20041;-53
2023/05/24 04:40:12;;;;;;;17.27;3.67;;;;;;;11.26;64.70;101116.50;5020697;28;20041;-55
2023/05/24 04:42:38;;;;;;;8.05;3.15;;;;;;;11.27;64.69;101133.81;5019187;28;20041;-52
2023/05/24 04:45:05;;;;;;;9.75;3.13;;;;;;;11.28;63.86;101132.09;5019166;28;20611;-54
2023/05/24 04:47:32;;;;;;;12.73;2.90;;;;;;;11.30;63.75;101138.16;5016507;28;20061;-55
2023/05/24 04:49:59;;;;;;;11.35;3.40;;;;;;;11.31;64.76;101133.00;5018985;28;20041;-55
2023/05/24 04:52:26;;;;;;;17.92;2.97;;;;;;;11.35;63.90;101127.84;5021763;28;20049;-54
2023/05/24 04:54:54;;;;;;;14.00;3.90;;;;;;;11.37;63.85;101120.94;5019639;28;20055;-55
2023/05/24 04:57:21;;;;;;;16.80;3.15;;;;;;;11.38;64.93;101123.53;5020879;28;20570;-51
2023/05/24 04:59:47;;;;;;;10.15;3.33;;;;;;;11.40;64.08;101120.97;5022466;28;20511;-55
2023/05/24 05:02:14;;;;;;;17.00;3.30;;;;;;;11.45;64.40;101119.28;5022309;28;20136;-55
2023/05/24 05:04:41;;;;;;;16.77;3.13;;;;;;;11.48;64.99;101119.31;5021507;28;20152;-53
2023/05/24 05:07:08;;;;;;;11.02;3.47;;;;;;;11.52;64.69;101126.28;5021209;28;20697;-54
2023/05/24 05:09:34;;;;;;;10.80;3.40;;;;;;;11.52;65.26;101123.69;5022494;28;20052;-56
2023/05/24 05:12:01;;;;;;;8.98;3.17;;;;;;;11.56;65.19;101128.06;5024995;28;20076;-52
2023/05/24 05:14:28;;;;;;;13.02;4.07;;;;;;;11.61;64.21;101125.53;5019915;28;20774;-55
2023/05/24 05:16:55;;;;;;;10.63;3.40;;;;;;;11.65;64.20;101129.03;5024144;28;20050;-55
2023/05/24 05:19:22;;;;;;;8.23;3.28;;;;;;;11.71;64.40;101136.88;5021458;28;20049;-53
2023/05/24 05:21:48;;;;;;;11.60;2.78;;;;;;;11.75;64.53;101138.63;5018783;28;20055;-52
2023/05/24 05:24:15;;;;;;;13.32;3.10;;;;;;;11.81;64.33;101148.19;5023782;28;20042;-55
2023/05/24 05:26:42;;;;;;;21.33;3.83;;;;;;;11.86;64.83;101156.94;5013359;28;20045;-54
2023/05/24 05:29:09;;;;;;;15.07;3.92;;;;;;;11.91;64.35;101154.34;5019209;28;20052;-57
2023/05/24 05:31:35;;;;;;;12.73;3.45;;;;;;;11.95;64.98;101150.94;5023886;28;20424;-52
2023/05/24 05:34:02;;;;;;;12.52;3.05;;;;;;;12.01;65.24;101156.19;5021089;28;20053;-57
2023/05/24 05:36:29;;;;;;;12.57;2.75;;;;;;;12.06;64.77;101153.69;5025945;28;20045;-53
2023/05/24 05:38:55;;;;;;;9.10;3.08;;;;;;;12.12;64.99;101152.88;5026094;28;20123;-56
2023/05/24 05:41:22;;;;;;;15.32;3.80;;;;;;;12.21;64.63;101155.53;5023777;28;20049;-56
2023/05/24 05:43:48;;;;;;;10.18;3.30;;;;;;;12.27;63.70;101165.97;5023529;28;20080;-55
2023/05/24 05:46:15;;;;;;;8.60;2.97;;;;;;;12.32;64.90;101177.28;5021923;28;20041;-55
2023/05/24 05:48:42;;;;;;;12.57;3.88;;;;;;;12.36;64.73;101178.16;5022985;28;20049;-56
2023/05/24 05:51:12;;;;;;;15.18;4.22;;;;;;;12.40;63.52;101181.66;5021286;28;20041;-54
2023/05/24 05:53:38;;;;;;;10.85;3.20;;;;;;;12.42;63.83;101177.31;5026250;28;20045;-55
2023/05/24 05:56:05;;;;;;;11.18;3.08;;;;;;;12.44;65.02;101180.81;5023526;28;20053;-55
2023/05/24 05:58:31;;;;;;;15.88;3.60;;;;;;;12.44;64.05;101176.50;5021902;28;20084;-52
2023/05/24 06:00:58;;;;;;;16.40;3.67;;;;;;;12.44;64.74;101165.22;5020685;28;20049;-56
2023/05/24 06:03:25;;;;;;;11.48;3.58;;;;;;;12.52;64.08;101173.94;5026035;28;20042;-55
2023/05/24 06:05:52;;;;;;;12.82;3.17;;;;;;;12.63;63.96;101192.22;5025555;28;20053;-55
2023/05/24 06:08:18;;;;;;;13.07;3.58;;;;;;;12.73;64.68;101182.75;5020578;28;20052;-55
2023/05/24 06:10:45;;;;;;;11.10;3.42;;;;;;;12.83;64.76;101173.28;5014715;28;20728;-52
2023/05/24 06:13:13;;;;;;;13.20;3.47;;;;;;;12.92;64.34;101182.88;5016980;28;20049;-56
2023/05/24 06:15:39;;;;;;;10.65;3.25;;;;;;;12.98;64.47;101177.72;5021469;28;20425;-55
2023/05/24 06:18:06;;;;;;;15.57;4.05;;;;;;;13.02;63.34;101179.47;5022814;28;20765;-54
2023/05/24 06:20:33;;;;;;;10.70;3.38;;;;;;;13.06;63.61;101183.81;5020271;28;20045;-56
2023/05/24 06:23:00;;;;;;;12.02;3.20;;;;;;;13.10;64.10;101188.16;5021659;28;20041;-53
2023/05/24 06:25:29;;;;;;;20.08;3.58;;;;;;;13.16;64.30;101181.25;5017923;28;20049;-51
2023/05/24 06:27:56;;;;;;;11.20;3.72;;;;;;;13.30;63.55;101178.69;5019515;28;20416;-52
2023/05/24 06:30:23;;;;;;;13.40;3.58;;;;;;;13.55;64.92;101174.53;5022837;28;20041;-55
2023/05/24 06:32:49;;;;;;;13.10;4.28;;;;;;;13.82;63.64;101174.56;5019137;28;20133;-57
2023/05/24 06:35:16;;;;;;;15.60;4.10;;;;;;;14.06;64.28;101178.94;5019518;28;20141;-52
2023/05/24 06:37:43;;;;;;;14.30;3.20;;;;;;;14.21;63.63;101177.19;5024750;28;20489;-55
2023/05/24 06:40:10;;;;;;;10.93;3.22;;;;;;;14.35;63.42;101182.41;5021247;28;20068;-54
2023/05/24 06:42:38;;;;;;;12.27;3.20;;;;;;;14.56;63.38;101181.53;5015927;28;20404;-52
2023/05/24 06:45:07;;;;;;;10.55;3.08;;;;;;;14.74;62.92;101178.03;5018786;28;20051;-55
2023/05/24 06:47:34;;;;;;;10.68;3.75;;;;;;;14.89;62.76;101185.00;5020933;28;20053;-53
2023/05/24 06:50:03;;;;;;;9.48;3.28;;;;;;;15.09;62.49;101172.75;5012798;28;20144;-56
2023/05/24 06:52:30;;;;;;;6.47;2.88;;;;;;;15.24;61.87;101172.72;5021745;28;20394;-55
2023/05/24 06:54:56;;;;;;;9.40;3.28;;;;;;;15.44;61.79;101170.88;5023044;28;20052;-55
2023/05/24 06:57:24;;;;;;;9.48;3.63;;;;;;;15.66;61.27;101175.09;5022348;28;20056;-52
2023/05/24 06:59:50;;;;;;;13.13;3.63;;;;;;;15.77;60.87;101176.78;5021957;28;20045;-54
2023/05/24 07:02:17;;;;;;;11.20;3.25;;;;;;;15.97;61.00;101176.66;5023954;28;20087;-57
2023/05/24 07:04:44;;;;;;;13.52;3.20;;;;;;;16.17;60.58;101175.66;5023226;28;20505;-54
2023/05/24 07:07:12;;;;;;;8.27;3.20;;;;;;;16.36;59.74;101178.13;5026377;28;20499;-55
2023/05/24 07:09:41;;;;;;;12.18;3.72;;;;;;;16.47;59.59;101181.50;5021506;28;20049;-52
2023/05/24 07:12:07;;;;;;;10.07;3.17;;;;;;;16.67;59.73;101185.66;5022164;28;20049;-56
2023/05/24 07:14:35;;;;;;;8.25;3.25;;;;;;;16.85;58.73;101176.75;5026590;28;20704;-56
2023/05/24 07:17:01;;;;;;;7.38;3.05;;;;;;;16.95;58.42;101182.75;5023862;28;20045;-58
2023/05/24 07:19:28;;;;;;;7.07;3.10;;;;;;;17.12;58.42;101185.22;5024867;28;20083;-57
2023/05/24 07:21:55;;;;;;;11.02;3.80;;;;;;;17.31;58.15;101180.63;5019395;28;20084;-57
2023/05/24 07:24:23;;;;;;;7.28;2.70;;;;;;;17.46;57.40;101179.56;5019475;28;20077;-57
2023/05/24 07:26:50;;;;;;;12.27;3.63;;;;;;;17.65;57.00;101179.31;5022532;28;20050;-54
2023/05/24 07:29:17;;;;;;;9.32;2.90;;;;;;;17.80;56.07;101185.22;5017341;28;20057;-54
2023/05/24 07:31:44;;;;;;;6.60;3.00;;;;;;;17.99;56.47;101184.06;5024485;28;20045;-57
2023/05/24 07:34:10;;;;;;;8.23;4.65;;;;;;;18.17;56.03;101187.28;5021954;28;21137;-57
2023/05/24 07:36:37;;;;;;;13.63;3.75;;;;;;;18.41;55.76;101179.88;5024648;28;20052;-53
2023/05/24 07:39:05;;;;;;;7.38;2.90;;;;;;;18.60;55.26;101184.81;5016185;28;20049;-55
2023/05/24 07:41:32;;;;;;;7.35;2.80;;;;;;;18.84;54.73;101193.13;5027053;28;20052;-54
2023/05/24 07:43:59;;;;;;;7.50;3.33;;;;;;;18.93;53.88;101187.72;5023211;28;20080;-55
2023/05/24 07:46:25;;;;;;;8.20;2.67;;;;;;;19.09;54.41;101192.69;5024292;28;20045;-54
2023/05/24 07:48:52;;;;;;;10.15;3.25;;;;;;;19.37;53.80;101186.84;5016691;28;20054;-53
2023/05/24 07:51:20;;;;;;;9.77;3.20;;;;;;;19.55;52.77;101193.47;5010710;28;20053;-54
2023/05/24 07:53:46;;;;;;;9.25;3.33;;;;;;;19.65;52.33;101186.25;5028432;28;20053;-55
2023/05/24 07:56:13;;;;;;;11.75;3.17;;;;;;;19.80;52.55;101189.41;5027463;28;20071;-55
2023/05/24 07:58:42;;;;;;;8.52;3.17;;;;;;;19.93;52.42;101185.63;5021258;28;20091;-56
2023/05/24 08:01:09;;;;;;;10.82;3.63;;;;;;;20.04;51.95;101194.13;5008471;28;20042;-56
2023/05/24 08:03:36;;;;;;;9.45;3.35;;;;;;;20.22;52.11;101191.94;5004761;28;20073;-56
2023/05/24 08:06:04;;;;;;;11.52;3.42;;;;;;;20.41;51.43;101196.75;5025955;28;20051;-55
2023/05/24 08:08:30;;;;;;;12.77;3.38;;;;;;;20.56;51.21;101195.47;5025156;28;20695;-57
2023/05/24 08:10:57;;;;;;;14.45;3.70;;;;;;;20.66;50.74;101204.00;5026395;28;20049;-56
2023/05/24 08:13:23;;;;;;;9.10;3.30;;;;;;;20.77;50.49;101193.19;5021132;28;20042;-58
2023/05/24 08:15:50;;;;;;;12.77;4.07;;;;;;;20.94;50.35;101195.41;5026316;28;20452;-55
2023/05/24 08:18:17;;;;;;;8.77;3.05;;;;;;;21.09;49.61;101198.47;5021563;28;20045;-57
2023/05/24 08:20:43;;;;;;;6.43;3.10;;;;;;;21.25;49.47;101197.16;5022838;28;20053;-56
2023/05/24 08:23:10;;;;;;;11.05;3.10;;;;;;;21.46;49.55;101192.13;5024773;28;20055;-56
2023/05/24 08:25:37;;;;;;;8.55;3.08;;;;;;;21.66;49.06;101185.38;5019104;28;20050;-57
2023/05/24 08:28:04;;;;;;;12.77;3.13;;;;;;;21.81;49.00;101187.56;5022621;28;20445;-56
2023/05/24 08:30:31;;;;;;;7.45;2.78;;;;;;;21.95;47.64;101183.59;5021422;28;20050;-56
2023/05/24 08:32:57;;;;;;;6.25;2.78;;;;;;;22.03;47.19;101197.44;5022145;28;20068;-56
2023/05/24 08:35:24;;;;;;;13.57;3.15;;;;;;;22.15;47.85;101190.88;5021867;28;20049;-55
2023/05/24 08:37:51;;;;;;;7.70;3.33;;;;;;;22.26;46.66;101195.78;5022543;28;20058;-58
2023/05/24 08:40:18;;;;;;;9.75;3.15;;;;;;;22.22;45.79;101191.53;5025298;28;20041;-55
2023/05/24 08:42:45;;;;;;;10.90;3.60;;;;;;;22.41;47.40;101198.81;5020326;28;20052;-56
2023/05/24 08:45:14;;;;;;;8.07;3.30;;;;;;;22.62;46.84;101193.78;5026201;28;20041;-58
2023/05/24 08:47:41;;;;;;;11.80;3.80;;;;;;;22.76;46.30;101186.19;5027055;28;20418;-55
2023/05/24 08:50:08;;;;;;;9.25;2.95;;;;;;;22.69;45.26;101189.97;5015994;28;20053;-52
2023/05/24 08:52:35;;;;;;;8.63;3.72;;;;;;;22.60;45.63;101180.63;5014191;28;20072;-57
2023/05/24 08:55:04;;;;;;;8.40;3.40;;;;;;;22.70;45.79;101182.00;5026244;28;20056;-57
2023/05/24 08:57:33;;;;;;;12.25;3.55;;;;;;;22.77;45.23;101180.00;5024872;28;20053;-57
2023/05/24 09:00:00;;;;;;;8.68;3.25;;;;;;;23.00;45.51;101177.44;5014853;28;20045;-55
2023/05/24 09:02:28;;;;;;;11.38;3.65;;;;;;;23.19;45.44;101182.88;5018049;28;20107;-56
2023/05/24 09:04:57;;;;;;;8.40;3.13;;;;;;;23.21;44.54;101181.06;5016254;28;20046;-58
2023/05/24 09:07:24;;;;;;;12.32;3.42;;;;;;;22.97;44.98;101183.72;5018517;28;20494;-57
2023/05/24 09:09:59;;;;;;;7.30;3.30;;;;;;;22.93;45.33;101187.38;5024444;28;20053;-53
2023/05/24 09:12:29;;;;;;;11.05;3.42;;;;;;;23.00;44.75;101188.84;5023881;28;20045;-59
2023/05/24 09:15:05;;;;;;;12.43;3.30;;;;;;;22.92;45.15;101185.63;5021327;28;20049;-58
2023/05/24 09:17:34;;;;;;;12.93;3.38;;;;;;;22.97;44.32;101181.91;5023507;28;20456;-60
2023/05/24 09:20:05;;;;;;;7.35;3.00;;;;;;;23.13;44.61;101183.97;5020808;28;20099;-59
2023/05/24 09:22:33;;;;;;;7.85;3.70;;;;;;;23.38;44.09;101177.81;5017263;28;20554;-59
2023/05/24 09:25:05;;;;;;;8.88;3.17;;;;;;;23.56;43.79;101181.50;5025428;28;20041;-59
2023/05/24 09:27:33;;;;;;;9.77;3.08;;;;;;;23.74;44.40;101182.53;5013785;28;20046;-59
2023/05/24 09:30:02;;;;;;;7.57;4.00;;;;;;;23.92;43.60;101177.44;5019725;28;20546;-59
2023/05/24 09:32:30;;;;;;;8.05;3.10;;;;;;;23.77;42.76;101173.63;5002795;28;20046;-59
2023/05/24 09:34:57;;;;;;;7.40;3.00;;;;;;;23.71;42.83;101184.47;5021882;28;20077;-58
2023/05/24 09:37:26;;;;;;;9.43;3.55;;;;;;;23.71;42.50;101176.53;5023695;28;20717;-58
2023/05/24 09:39:57;;;;;;;6.32;3.13;;;;;;;23.77;43.33;101176.25;5023689;28;20052;-57
2023/05/24 09:42:27;;;;;;;12.20;3.63;;;;;;;23.90;42.40;101168.69;5026043;28;20053;-59
2023/05/24 09:47:40;;;;;;;7.43;2.80;;;;;;;24.15;42.72;101166.84;5070926;27;20411;-57
2023/05/24 09:50:16;;;;;;;;;;;;;;;24.25;42.72;101176.13;5063415;28;20045;-58
2023/05/24 09:52:43;;;;;;;8.50;3.45;;;;;;;24.47;42.79;101172.53;5056619;28;19920;-58
2023/05/24 09:55:15;;;;;;;7.55;3.58;;;;;;;24.45;41.73;101163.81;5061509;28;20068;-59
2023/05/24 09:57:43;;;;;;;6.75;2.65;;;;;;;24.52;41.93;101170.56;5057847;28;20053;-53
2023/05/24 10:00:15;;;;;;;9.13;3.42;;;;;;;24.62;41.84;101168.38;5059658;28;20064;-56
2023/05/24 10:02:43;;;;;;;9.32;3.53;;;;;;;24.63;40.97;101168.28;5063328;28;20076;-58
2023/05/24 10:05:20;;;;;;;9.05;2.92;;;;;;;24.65;41.31;101161.13;5062963;28;20051;-58
2023/05/24 10:07:47;;;;;;;4.25;2.45;;;;;;;24.67;41.00;101157.56;5062334;28;20467;-57
2023/05/24 10:10:14;;;;;;;5.70;2.78;;;;;;;24.70;40.72;101160.06;5060743;28;20044;-57
2023/05/24 10:12:45;;;;;;;9.82;3.53;;;;;;;24.68;40.18;101154.00;5062761;28;20103;-57
2023/05/24 10:15:12;;;;;;;8.43;3.38;;;;;;;24.82;40.27;101151.56;5058314;28;20052;-55
2023/05/24 10:17:39;;;;;;;8.88;2.97;;;;;;;24.94;40.40;101146.66;5061632;28;20040;-58
2023/05/24 10:20:07;;;;;;;6.68;3.00;;;;;;;24.93;40.10;101147.59;5058619;28;20401;-58
2023/05/24 10:22:39;;;;;;;10.82;3.67;;;;;;;24.89;39.82;101150.38;5056823;28;20076;-58
2023/05/24 10:25:09;;;;;;;6.97;3.53;;;;;;;24.98;40.04;101153.53;5069975;28;20059;-58
2023/05/24 10:27:37;;;;;;;8.88;4.18;;;;;;;25.09;40.15;101148.59;5058065;28;20076;-58
2023/05/24 10:33:11;;;;;;;7.65;4.18;;;;;;;25.33;39.83;101151.03;5056905;27;20395;-59
2023/05/24 10:35:39;;;;;;;9.32;4.45;;;;;;;25.35;39.57;101148.31;5012630;28;20057;-59
2023/05/24 10:38:06;;;;;;;6.55;3.55;;;;;;;25.28;38.65;101142.44;5017257;28;20046;-60
2023/05/24 10:40:33;;;;;;;5.70;3.47;;;;;;;25.19;37.96;101143.72;5013226;28;20132;-59
2023/05/24 10:43:05;;;;;;;7.30;4.03;;;;;;;25.12;37.83;101152.91;5020056;28;20111;-58
2023/05/24 10:45:35;;;;;;;7.82;3.75;;;;;;;24.97;37.50;101146.53;5017460;28;20524;-59
2023/05/24 10:51:00;;;;;;;7.72;3.03;;;;;;;24.96;39.11;101147.47;5056142;28;20391;-57
2023/05/24 10:53:27;;;;;;;8.80;2.78;;;;;;;25.05;38.68;101136.44;5023411;28;20049;-59
2023/05/24 11:01:32;;;;;;;5.68;4.00;;;;;;;25.42;37.88;101128.53;5033698;28;20437;-57
2023/05/24 11:04:17;;;;;;;7.28;2.72;;;;;;;25.55;37.80;101139.41;5019870;28;21088;-57
2023/05/24 11:09:21;;;;;;;9.38;3.67;;;;;;;25.77;37.04;101133.06;5051125;27;20495;-58
2023/05/24 11:11:52;;;;;;;7.40;2.75;;;;;;;25.76;36.68;101131.34;5002553;28;20093;-58
2023/05/24 11:14:23;;;;;;;8.10;2.70;;;;;;;25.65;36.54;101124.78;5003465;28;20108;-58
2023/05/24 11:16:50;;;;;;;10.05;3.05;;;;;;;25.59;36.93;101130.38;5001817;28;20473;-57
2023/05/24 11:21:57;;;;;;;4.90;3.00;;;;;;;25.59;37.21;101124.22;5105204;27;20396;-58
2023/05/24 11:24:25;;;;;;;6.63;2.72;;;;;;;25.57;36.33;101132.25;5101669;28;20424;-58
2023/05/24 11:26:52;;;;;;;4.97;2.83;;;;;;;25.52;36.87;101131.59;5102847;28;20064;-58
2023/05/24 11:29:21;;;;;;;9.43;3.17;;;;;;;25.48;36.53;101127.38;5083264;27;20049;-58
2023/05/24 11:31:51;;;;;;;6.55;2.45;;;;;;;25.49;36.68;101131.72;5083014;28;20056;-58
2023/05/24 11:34:19;;;;;;;12.05;3.08;;;;;;;25.57;36.56;101137.53;5081891;28;20109;-55
2023/05/24 11:36:47;;;;;;;5.05;2.72;;;;;;;25.56;36.64;101135.81;5081817;28;20056;-59
2023/05/24 11:39:14;;;;;;;9.80;3.25;;;;;;;25.54;36.48;101127.06;5082185;28;20071;-58
2023/05/24 11:41:41;;;;;;;8.40;2.75;;;;;;;25.54;37.34;101133.22;5078742;28;20399;-57
2023/05/24 11:44:09;;;;;;;9.70;3.05;;;;;;;25.57;37.03;101132.25;5082946;28;20044;-58
2023/05/24 11:46:38;;;;;;;8.25;3.20;;;;;;;25.57;36.31;101137.53;5080001;28;20052;-54
2023/05/24 11:49:05;;;;;;;9.13;3.25;;;;;;;25.56;36.01;101138.44;5080259;28;20362;-58
2023/05/24 11:51:33;;;;;;;4.97;3.42;;;;;;;25.50;35.08;101141.41;5084274;28;20044;-58
2023/05/24 11:54:00;;;;;;;6.00;2.95;;;;;;;25.41;35.70;101135.63;5114486;27;20082;-57